Terminal Aerodrome Forecast
Issued by NWS Portland, OR

Home | Current Version | Previous Version | Text Only | Print | Product List | Glossary On
Versions: 1 2 3 4 5 6 7 8 9 10 11 12 13 14 15 16 17 18 19 20 21 22 23 24 25 26 27 28 29 30 31 32 33 34
000
FTUS46 KPQR 231740
TAFTTD
TAF
KTTD 231740Z 2318/2418 VRB03KT P6SM VCSH SCT120 OVC170
     FM231900 12006KT P6SM SCT045 BKN060 OVC100
      TEMPO 2400/2404 -RA
     FM240400 14004KT P6SM -RA BKN040 OVC060
     FM240700 17007KT 5SM RA BR BKN025 OVC040=

USA.gov is the U.S. government's official web portal to all federal, state and local government web resources and services.